Time;durP1;ratioP1;P1;durP2;ratioP2;P2;SDS_P1;SDS_P2;PMS_P1;PMS_P2;Temp;Humidity;BMP_temperature;BMP_pressure;BME280_temperature;BME280_humidity;BME280_pressure;Samples;Min_cycle;Max_cycle;Signal;HPM_P1;HPM_P2
2023/07/17 00:01:37;;;;;;;0.10;0.10;;;17.70;99.90;;;;;;4993727;28;20118;-75
2023/07/17 00:04:02;;;;;;;0.00;0.00;;;17.60;99.90;;;;;;4993592;28;20034;-75
2023/07/17 00:06:29;;;;;;;0.20;0.20;;;17.60;99.90;;;;;;4993336;28;20034;-76
2023/07/17 00:08:55;;;;;;;1.65;0.65;;;17.40;99.90;;;;;;4993290;28;20022;-75
2023/07/17 00:11:20;;;;;;;0.88;0.52;;;17.40;99.90;;;;;;4993299;28;20441;-75
2023/07/17 00:13:46;;;;;;;3.13;1.17;;;17.30;99.90;;;;;;4993520;28;20459;-76
2023/07/17 00:16:12;;;;;;;2.15;0.98;;;17.30;99.90;;;;;;4993080;28;20053;-74
2023/07/17 00:18:38;;;;;;;0.30;0.30;;;17.20;99.90;;;;;;4992141;28;20042;-76
2023/07/17 00:21:04;;;;;;;0.10;0.10;;;17.30;99.90;;;;;;4993377;28;20029;-76
2023/07/17 00:23:31;;;;;;;0.75;0.30;;;17.10;99.90;;;;;;4992844;28;20022;-75
2023/07/17 00:25:57;;;;;;;5.13;0.50;;;17.10;99.90;;;;;;4993179;28;20468;-76
2023/07/17 00:28:23;;;;;;;1.30;0.35;;;17.10;99.90;;;;;;4986941;28;20035;-75
2023/07/17 00:30:49;;;;;;;5.90;1.38;;;17.00;99.90;;;;;;4974900;28;20029;-74
2023/07/17 00:33:15;;;;;;;1.77;1.23;;;16.80;99.90;;;;;;4991941;28;20038;-75
2023/07/17 00:35:40;;;;;;;3.05;0.80;;;16.80;99.90;;;;;;4993237;28;20093;-75
2023/07/17 00:38:06;;;;;;;3.53;0.82;;;16.80;99.90;;;;;;4993031;28;20014;-76
2023/07/17 00:40:34;;;;;;;0.60;0.60;;;16.70;99.90;;;;;;4993096;28;20037;-75
2023/07/17 00:43:01;;;;;;;5.05;1.23;;;16.60;99.90;;;;;;4991686;28;20124;-75
2023/07/17 00:45:31;;;;;;;0.40;0.40;;;16.60;99.90;;;;;;4991802;28;20450;-75
2023/07/17 00:47:58;;;;;;;0.47;0.30;;;16.60;99.90;;;;;;4991760;28;20422;-76
2023/07/17 00:50:24;;;;;;;5.10;1.25;;;16.60;99.90;;;;;;4991954;28;20089;-75
2023/07/17 00:52:50;;;;;;;0.20;0.20;;;16.50;99.90;;;;;;4991358;28;20026;-75
2023/07/17 00:55:18;;;;;;;0.85;0.85;;;16.60;99.90;;;;;;4993219;28;20042;-75
2023/07/17 00:57:44;;;;;;;1.55;1.10;;;16.40;99.90;;;;;;4992841;28;20491;-75
2023/07/17 01:00:12;;;;;;;0.10;0.10;;;16.50;99.90;;;;;;4992437;28;20034;-75
2023/07/17 01:02:39;;;;;;;14.40;1.27;;;16.70;99.90;;;;;;4996617;28;20022;-75
2023/07/17 01:05:05;;;;;;;0.68;0.30;;;16.80;99.90;;;;;;4995684;28;20014;-76
2023/07/17 01:07:32;;;;;;;0.75;0.75;;;16.60;99.90;;;;;;4995150;28;20062;-75
2023/07/17 01:10:00;;;;;;;0.20;0.20;;;16.50;99.90;;;;;;4996740;28;20148;-75
2023/07/17 01:12:27;;;;;;;0.25;0.25;;;16.60;99.90;;;;;;4996636;28;20058;-75
2023/07/17 01:14:53;;;;;;;0.08;0.08;;;16.40;99.90;;;;;;4996438;28;20471;-75
2023/07/17 01:17:19;;;;;;;0.00;0.00;;;16.30;99.90;;;;;;4996549;28;20165;-75
2023/07/17 01:19:44;;;;;;;0.10;0.10;;;16.30;99.90;;;;;;4995366;28;20035;-76
2023/07/17 01:22:26;;;;;;;10.85;1.00;;;16.40;99.90;;;;;;4996204;28;20030;-75
2023/07/17 01:24:52;;;;;;;12.18;1.52;;;16.30;99.90;;;;;;4996401;28;20045;-75
2023/07/17 01:27:18;;;;;;;0.32;0.32;;;16.40;99.90;;;;;;4996357;28;20030;-75
2023/07/17 01:29:44;;;;;;;0.10;0.10;;;16.30;99.90;;;;;;4994915;28;20104;-75
2023/07/17 01:32:09;;;;;;;0.70;0.70;;;16.40;99.90;;;;;;4996353;28;20475;-75
2023/07/17 01:34:35;;;;;;;0.30;0.30;;;16.40;99.90;;;;;;4994927;28;20052;-76
2023/07/17 01:37:02;;;;;;;0.15;0.15;;;16.20;99.90;;;;;;4994417;28;20402;-74
2023/07/17 01:39:30;;;;;;;0.85;0.75;;;16.00;99.90;;;;;;4994930;28;20395;-74
2023/07/17 01:41:56;;;;;;;0.70;0.30;;;16.00;99.90;;;;;;4996133;28;20022;-75
2023/07/17 01:44:27;;;;;;;0.30;0.30;;;16.00;99.90;;;;;;4995973;28;20065;-75
2023/07/17 01:46:54;;;;;;;0.20;0.20;;;15.90;99.90;;;;;;4994628;28;20076;-75
2023/07/17 01:49:20;;;;;;;0.50;0.50;;;15.90;99.90;;;;;;4994739;28;20014;-75
2023/07/17 01:51:46;;;;;;;0.00;0.00;;;16.00;99.90;;;;;;4994662;28;20436;-75
2023/07/17 01:54:12;;;;;;;0.00;0.00;;;15.90;99.90;;;;;;4995583;28;20046;-74
2023/07/17 01:56:37;;;;;;;1.88;1.20;;;16.00;99.90;;;;;;5003282;28;20039;-75
2023/07/17 01:59:03;;;;;;;1.83;0.47;;;15.80;99.90;;;;;;4994608;28;20034;-75
2023/07/17 02:01:29;;;;;;;0.20;0.20;;;15.80;99.90;;;;;;4978274;28;20121;-75
2023/07/17 02:03:55;;;;;;;3.45;0.82;;;15.70;99.90;;;;;;4994426;28;20026;-74
2023/07/17 02:06:21;;;;;;;0.63;0.63;;;15.50;99.90;;;;;;4995297;28;20447;-75
2023/07/17 02:08:47;;;;;;;0.30;0.20;;;15.50;99.90;;;;;;4994238;28;20073;-75
2023/07/17 02:11:13;;;;;;;3.70;1.33;;;15.60;99.90;;;;;;4994033;28;20061;-75
2023/07/17 02:13:38;;;;;;;1.08;0.30;;;15.50;99.90;;;;;;4994736;28;20162;-74
2023/07/17 02:16:05;;;;;;;0.10;0.10;;;15.60;99.90;;;;;;4994310;28;20033;-75
2023/07/17 02:18:31;;;;;;;3.83;0.73;;;15.70;99.90;;;;;;4995356;28;20109;-75
2023/07/17 02:20:57;;;;;;;5.25;1.75;;;15.60;99.90;;;;;;4994087;28;20157;-75
2023/07/17 02:23:23;;;;;;;0.95;0.50;;;15.50;99.90;;;;;;4995511;28;20380;-75
2023/07/17 02:25:48;;;;;;;0.30;0.30;;;15.40;99.90;;;;;;4977791;28;20026;-75
2023/07/17 02:28:15;;;;;;;0.10;0.10;;;15.40;99.90;;;;;;4995473;28;20117;-74
2023/07/17 02:30:42;;;;;;;12.30;0.70;;;15.30;99.90;;;;;;4993929;28;20491;-75
2023/07/17 02:33:08;;;;;;;0.57;0.57;;;15.30;99.90;;;;;;4993879;28;20077;-75
2023/07/17 02:35:34;;;;;;;0.65;0.43;;;15.20;99.90;;;;;;4993529;28;20058;-75
2023/07/17 02:38:00;;;;;;;1.73;0.60;;;15.20;99.90;;;;;;4994782;28;20026;-76
2023/07/17 02:40:26;;;;;;;0.50;0.50;;;15.30;99.90;;;;;;4993610;28;20026;-74
2023/07/17 02:42:51;;;;;;;0.10;0.10;;;15.30;99.90;;;;;;4993612;28;20029;-75
2023/07/17 02:45:17;;;;;;;25.23;0.80;;;15.30;99.90;;;;;;4993561;28;20050;-75
2023/07/17 02:47:43;;;;;;;2.10;0.43;;;15.20;99.90;;;;;;4995035;28;20089;-75
2023/07/17 02:50:10;;;;;;;1.20;0.43;;;15.30;99.90;;;;;;4994848;28;20049;-75
2023/07/17 02:52:36;;;;;;;1.77;0.73;;;15.20;99.90;;;;;;4994777;28;20118;-75
2023/07/17 02:55:05;;;;;;;0.38;0.35;;;15.20;99.90;;;;;;4993397;28;20030;-75
2023/07/17 02:57:35;;;;;;;8.82;0.60;;;15.30;99.90;;;;;;4994474;28;20030;-75
2023/07/17 03:00:07;;;;;;;0.60;0.47;;;15.20;99.90;;;;;;4994627;28;20114;-76
2023/07/17 03:02:33;;;;;;;3.28;0.90;;;15.20;99.90;;;;;;4993113;28;20022;-75
2023/07/17 03:04:59;;;;;;;0.65;0.35;;;15.20;99.90;;;;;;4994429;28;20391;-75
2023/07/17 03:07:24;;;;;;;0.82;0.82;;;15.10;99.90;;;;;;4994523;28;20045;-75
2023/07/17 03:09:50;;;;;;;0.30;0.30;;;15.20;99.90;;;;;;4993088;28;20109;-75
2023/07/17 03:12:16;;;;;;;0.43;0.43;;;15.10;99.90;;;;;;4994681;28;20084;-75
2023/07/17 03:14:42;;;;;;;2.63;0.50;;;15.10;99.90;;;;;;4992883;28;20030;-76
2023/07/17 03:17:07;;;;;;;1.48;0.40;;;15.10;99.90;;;;;;4992724;28;20435;-75
2023/07/17 03:19:33;;;;;;;0.10;0.10;;;15.20;99.90;;;;;;4992810;28;20026;-75
2023/07/17 03:21:59;;;;;;;0.77;0.77;;;15.30;99.90;;;;;;4992754;28;20021;-76
2023/07/17 03:24:25;;;;;;;1.08;0.82;;;15.10;99.90;;;;;;4992595;28;20061;-75
2023/07/17 03:26:50;;;;;;;1.27;0.88;;;15.20;99.90;;;;;;4992881;28;20475;-76
2023/07/17 03:29:16;;;;;;;0.93;0.85;;;15.00;99.90;;;;;;4976730;28;20038;-76
2023/07/17 03:31:42;;;;;;;0.15;0.15;;;15.10;99.90;;;;;;4993626;28;20098;-75
2023/07/17 03:34:08;;;;;;;0.88;0.85;;;15.00;99.90;;;;;;4994026;28;20471;-75
2023/07/17 03:36:34;;;;;;;0.93;0.85;;;15.00;99.90;;;;;;4992654;28;20486;-75
2023/07/17 03:38:59;;;;;;;0.13;0.13;;;15.30;99.90;;;;;;4992732;28;20026;-75
2023/07/17 03:41:26;;;;;;;0.85;0.47;;;15.20;99.90;;;;;;4992728;28;20513;-76
2023/07/17 03:43:56;;;;;;;4.13;1.15;;;15.10;99.90;;;;;;4993864;28;20122;-75
2023/07/17 03:46:22;;;;;;;1.17;0.50;;;15.10;99.90;;;;;;4993461;28;20479;-75
2023/07/17 03:48:48;;;;;;;0.10;0.10;;;15.00;99.90;;;;;;4992109;28;20040;-75
2023/07/17 03:51:14;;;;;;;0.82;0.50;;;15.10;99.90;;;;;;4991763;28;20109;-75
2023/07/17 03:53:41;;;;;;;2.92;0.90;;;14.90;99.90;;;;;;4992034;28;20549;-76
2023/07/17 03:56:07;;;;;;;1.48;0.32;;;14.70;99.90;;;;;;4992161;28;20026;-75
2023/07/17 03:58:32;;;;;;;0.20;0.20;;;14.90;99.90;;;;;;4993495;28;20088;-75
2023/07/17 04:00:58;;;;;;;1.75;0.65;;;14.80;99.90;;;;;;4991981;28;20022;-75
2023/07/17 04:03:33;;;;;;;1.20;0.60;;;14.70;99.90;;;;;;4992071;28;20038;-75
2023/07/17 04:05:58;;;;;;;0.10;0.10;;;14.70;99.90;;;;;;4992079;28;20018;-75
2023/07/17 04:08:24;;;;;;;0.10;0.10;;;14.90;99.90;;;;;;4992296;28;20113;-75
2023/07/17 04:10:50;;;;;;;1.02;0.30;;;14.80;99.90;;;;;;4991980;28;20037;-75
2023/07/17 04:13:16;;;;;;;0.43;0.43;;;14.80;99.90;;;;;;4992015;28;20056;-76
2023/07/17 04:15:42;;;;;;;0.10;0.10;;;14.80;99.90;;;;;;4975597;28;20038;-75
2023/07/17 04:18:12;;;;;;;6.35;0.43;;;14.80;99.90;;;;;;4991968;28;20089;-75
2023/07/17 04:20:42;;;;;;;1.60;0.63;;;14.80;99.90;;;;;;4992097;28;20038;-74
2023/07/17 04:23:08;;;;;;;2.28;1.63;;;14.80;99.90;;;;;;4991847;28;20026;-75
2023/07/17 04:25:39;;;;;;;2.60;1.58;;;14.70;99.90;;;;;;4992334;28;20428;-76
2023/07/17 04:28:05;;;;;;;0.43;0.43;;;14.70;99.90;;;;;;4994696;28;20026;-75
2023/07/17 04:30:34;;;;;;;0.57;0.57;;;14.80;99.90;;;;;;4991850;28;20026;-75
2023/07/17 04:33:00;;;;;;;1.95;1.27;;;14.70;99.90;;;;;;4992922;28;20019;-75
2023/07/17 04:35:26;;;;;;;1.02;0.80;;;14.70;99.90;;;;;;4994436;28;20038;-75
2023/07/17 04:37:56;;;;;;;1.13;1.00;;;14.80;99.90;;;;;;4997347;28;20018;-76
2023/07/17 04:40:22;;;;;;;2.30;1.13;;;14.90;99.90;;;;;;4996200;28;20030;-76
2023/07/17 04:42:49;;;;;;;1.63;0.30;;;14.90;99.90;;;;;;4995738;28;20030;-75
2023/07/17 04:45:19;;;;;;;0.95;0.73;;;14.90;99.90;;;;;;4995690;28;20030;-75
2023/07/17 04:47:45;;;;;;;6.80;1.35;;;14.80;99.90;;;;;;4995815;28;20030;-75
2023/07/17 04:50:12;;;;;;;4.20;1.73;;;14.90;99.90;;;;;;4995874;28;20677;-75
2023/07/17 04:52:37;;;;;;;0.22;0.22;;;15.00;99.90;;;;;;4997098;28;20105;-75
2023/07/17 04:55:04;;;;;;;4.13;0.98;;;15.00;99.90;;;;;;4996544;28;20074;-75
2023/07/17 04:57:29;;;;;;;4.90;1.25;;;15.00;99.90;;;;;;4996953;28;20070;-75
2023/07/17 04:59:56;;;;;;;3.75;1.02;;;15.20;99.90;;;;;;4995395;28;20026;-75
2023/07/17 05:02:22;;;;;;;0.93;0.90;;;15.20;99.90;;;;;;4995557;28;20026;-75
2023/07/17 05:04:48;;;;;;;1.85;0.75;;;15.30;99.90;;;;;;4995488;28;20491;-75
2023/07/17 05:07:14;;;;;;;3.30;1.42;;;15.50;99.90;;;;;;4995373;28;20023;-75
2023/07/17 05:09:41;;;;;;;6.60;1.80;;;15.40;99.90;;;;;;4995652;28;20041;-75
2023/07/17 05:12:08;;;;;;;3.50;1.55;;;15.40;99.90;;;;;;4996506;28;20015;-74
2023/07/17 05:14:35;;;;;;;5.90;3.03;;;15.40;99.90;;;;;;4994963;28;20411;-75
2023/07/17 05:17:02;;;;;;;0.85;0.80;;;15.30;99.90;;;;;;4995323;28;20023;-75
2023/07/17 05:19:28;;;;;;;4.00;1.23;;;15.40;99.90;;;;;;4995215;28;20109;-75
2023/07/17 05:21:54;;;;;;;1.45;1.30;;;15.50;99.90;;;;;;4996477;28;20112;-76
2023/07/17 05:24:21;;;;;;;15.27;3.35;;;15.40;99.90;;;;;;4994993;28;20466;-74
2023/07/17 05:26:47;;;;;;;5.35;1.65;;;15.30;99.90;;;;;;4995152;28;20109;-75
2023/07/17 05:29:13;;;;;;;1.23;0.68;;;15.50;99.90;;;;;;4996058;28;20491;-73
2023/07/17 05:31:40;;;;;;;2.15;1.17;;;15.60;99.90;;;;;;4995308;28;20022;-75
2023/07/17 05:34:06;;;;;;;18.65;4.03;;;15.70;99.90;;;;;;4994781;28;20121;-74
2023/07/17 05:36:31;;;;;;;0.73;0.60;;;15.70;99.90;;;;;;4995161;28;20101;-74
2023/07/17 05:38:58;;;;;;;1.75;1.42;;;15.80;99.90;;;;;;4994653;28;20085;-76
2023/07/17 05:41:24;;;;;;;3.65;0.93;;;15.90;99.90;;;;;;4997169;28;20471;-74
2023/07/17 05:43:50;;;;;;;0.30;0.30;;;15.90;99.90;;;;;;4999817;28;20029;-75
2023/07/17 05:46:18;;;;;;;1.48;1.35;;;15.90;99.90;;;;;;4993201;28;20055;-75
2023/07/17 05:48:44;;;;;;;1.33;0.55;;;16.10;99.90;;;;;;5000366;28;20064;-75
2023/07/17 05:51:11;;;;;;;6.82;1.75;;;16.30;99.90;;;;;;4995021;28;20077;-75
2023/07/17 05:53:36;;;;;;;0.75;0.75;;;16.40;99.90;;;;;;4996342;28;20023;-75
2023/07/17 05:56:02;;;;;;;3.17;1.83;;;16.20;99.90;;;;;;5000701;28;20140;-75
2023/07/17 05:58:31;;;;;;;12.27;2.10;;;16.20;99.90;;;;;;5000262;28;20380;-75
2023/07/17 06:00:57;;;;;;;2.30;2.13;;;16.30;99.90;;;;;;4993810;28;20037;-75
2023/07/17 06:03:22;;;;;;;1.27;0.90;;;16.20;99.90;;;;;;4994257;28;20113;-75
2023/07/17 06:05:48;;;;;;;4.88;2.30;;;16.30;99.90;;;;;;4997856;28;20045;-75
2023/07/17 06:08:14;;;;;;;4.00;2.17;;;16.30;99.90;;;;;;4977172;28;20030;-75
2023/07/17 06:10:42;;;;;;;0.25;0.25;;;16.50;99.90;;;;;;4998642;28;20101;-75
2023/07/17 06:13:09;;;;;;;3.42;1.67;;;16.60;99.90;;;;;;4999080;28;20034;-75
2023/07/17 06:15:35;;;;;;;5.10;2.15;;;16.50;99.90;;;;;;4997174;28;20030;-75
2023/07/17 06:18:00;;;;;;;5.38;2.08;;;16.60;99.90;;;;;;4999818;28;20049;-75
2023/07/17 06:20:26;;;;;;;3.03;1.48;;;16.50;99.90;;;;;;5002215;28;20160;-75
2023/07/17 06:22:52;;;;;;;0.80;0.80;;;16.40;99.90;;;;;;4977751;28;20073;-75
2023/07/17 06:25:19;;;;;;;1.42;1.17;;;16.50;99.90;;;;;;4998493;28;20770;-75
2023/07/17 06:27:45;;;;;;;1.80;1.70;;;16.70;99.90;;;;;;4998646;28;20128;-75
2023/07/17 06:30:11;;;;;;;12.75;3.70;;;16.60;99.90;;;;;;5003457;28;20475;-75
2023/07/17 06:32:37;;;;;;;8.57;3.67;;;16.50;99.90;;;;;;4996231;28;20654;-75
2023/07/17 06:35:05;;;;;;;26.85;3.83;;;16.50;99.90;;;;;;4994174;28;20072;-75
2023/07/17 06:37:31;;;;;;;9.85;0.75;;;16.60;99.90;;;;;;4999038;28;20046;-75
2023/07/17 06:39:57;;;;;;;18.60;3.53;;;16.90;99.90;;;;;;4992724;28;20464;-75
2023/07/17 06:42:22;;;;;;;15.23;3.42;;;17.00;99.90;;;;;;4994483;28;20027;-75
2023/07/17 06:44:48;;;;;;;2.53;1.20;;;17.00;99.90;;;;;;4995003;28;20587;-75
2023/07/17 06:47:14;;;;;;;8.93;2.45;;;17.10;99.90;;;;;;4998336;28;20045;-75
2023/07/17 06:49:41;;;;;;;4.22;1.63;;;17.10;99.90;;;;;;5003012;28;20030;-75
2023/07/17 06:52:07;;;;;;;1.38;0.80;;;16.90;99.90;;;;;;4997383;28;20030;-75
2023/07/17 06:54:33;;;;;;;7.60;2.60;;;17.00;99.90;;;;;;4990186;28;20034;-75
2023/07/17 06:56:58;;;;;;;10.02;2.67;;;17.20;99.90;;;;;;4996934;28;20030;-75
2023/07/17 06:59:28;;;;;;;8.63;2.75;;;17.20;99.90;;;;;;4992589;28;20475;-76
2023/07/17 07:01:54;;;;;;;0.73;0.73;;;17.20;99.90;;;;;;4999972;28;20482;-76
2023/07/17 07:04:20;;;;;;;6.07;2.28;;;17.50;99.90;;;;;;4994197;28;20513;-76
2023/07/17 07:06:46;;;;;;;15.68;4.65;;;17.40;99.90;;;;;;4998467;28;20022;-75
2023/07/17 07:09:12;;;;;;;8.98;2.42;;;17.40;99.90;;;;;;4995817;28;20096;-76
2023/07/17 07:11:38;;;;;;;0.25;0.25;;;17.40;99.90;;;;;;4996230;28;20014;-77
2023/07/17 07:14:04;;;;;;;5.55;2.20;;;17.70;99.90;;;;;;4999334;28;20101;-77
2023/07/17 07:16:30;;;;;;;9.52;2.10;;;17.70;99.90;;;;;;4993699;28;20034;-77
2023/07/17 07:18:55;;;;;;;0.90;0.90;;;17.90;99.90;;;;;;4997939;28;20052;-77
2023/07/17 07:21:21;;;;;;;5.07;0.57;;;18.00;99.90;;;;;;4995784;28;20113;-77
2023/07/17 07:23:47;;;;;;;5.00;1.95;;;17.90;99.90;;;;;;4996384;28;20022;-78
2023/07/17 07:26:13;;;;;;;2.17;0.95;;;18.00;99.90;;;;;;4978211;28;20085;-78
2023/07/17 07:28:38;;;;;;;5.72;1.50;;;17.90;99.90;;;;;;4999746;28;20022;-78
2023/07/17 07:31:04;;;;;;;5.53;2.17;;;18.10;99.90;;;;;;4996723;28;20065;-78
2023/07/17 07:33:30;;;;;;;2.92;0.90;;;17.90;99.90;;;;;;4995722;28;20039;-77
2023/07/17 07:35:56;;;;;;;16.33;2.55;;;18.00;99.90;;;;;;5001641;28;20057;-78
2023/07/17 07:38:21;;;;;;;6.00;1.38;;;18.00;99.90;;;;;;4994204;28;20081;-78
2023/07/17 07:40:49;;;;;;;4.07;1.38;;;18.20;99.90;;;;;;4997502;28;20092;-77
2023/07/17 07:43:15;;;;;;;3.35;1.48;;;18.30;99.90;;;;;;4995498;28;20026;-78
2023/07/17 07:45:41;;;;;;;2.40;1.33;;;18.60;99.90;;;;;;4991391;28;20453;-78
2023/07/17 07:48:06;;;;;;;4.22;2.40;;;18.50;99.90;;;;;;4992600;28;20030;-79
2023/07/17 07:50:32;;;;;;;5.93;3.20;;;18.60;99.90;;;;;;4993581;28;20026;-78
2023/07/17 07:52:58;;;;;;;7.55;4.32;;;18.40;99.90;;;;;;4991886;28;20045;-79
2023/07/17 07:55:24;;;;;;;4.45;2.22;;;18.70;99.90;;;;;;4993177;28;20026;-79
2023/07/17 07:57:50;;;;;;;21.70;1.55;;;19.00;99.90;;;;;;4992383;28;20045;-80
2023/07/17 08:00:16;;;;;;;7.90;2.72;;;19.20;99.90;;;;;;4993814;28;20473;-79
2023/07/17 08:02:42;;;;;;;8.43;2.20;;;19.10;99.90;;;;;;4993379;28;20019;-80
2023/07/17 08:05:10;;;;;;;7.95;1.95;;;19.00;99.90;;;;;;5000774;28;20142;-80
2023/07/17 08:07:35;;;;;;;2.97;1.17;;;19.20;99.90;;;;;;4996470;28;20049;-80
2023/07/17 08:10:02;;;;;;;3.30;1.75;;;19.40;99.90;;;;;;4994518;28;20499;-79
2023/07/17 08:12:29;;;;;;;5.60;1.90;;;19.30;99.90;;;;;;4992815;28;20029;-79
2023/07/17 08:14:55;;;;;;;0.63;0.63;;;19.20;99.90;;;;;;5000386;28;20052;-79
2023/07/17 08:17:20;;;;;;;10.48;2.45;;;19.40;99.90;;;;;;4999397;28;20038;-78
2023/07/17 08:19:46;;;;;;;2.58;1.10;;;19.30;99.90;;;;;;4996681;28;20019;-79
2023/07/17 08:22:12;;;;;;;0.15;0.15;;;19.70;99.90;;;;;;4996956;28;20026;-79
2023/07/17 08:24:38;;;;;;;2.08;1.30;;;19.80;99.90;;;;;;4992949;28;20034;-79
2023/07/17 08:27:04;;;;;;;5.20;2.45;;;19.60;99.90;;;;;;5000510;28;20018;-79
2023/07/17 08:29:30;;;;;;;10.23;2.50;;;19.50;99.90;;;;;;4997909;28;20427;-81
2023/07/17 08:31:55;;;;;;;2.40;0.98;;;19.60;99.90;;;;;;4995496;28;20137;-79
2023/07/17 08:34:23;;;;;;;4.50;2.90;;;19.90;99.90;;;;;;4994235;28;20038;-79
2023/07/17 08:36:49;;;;;;;3.08;1.10;;;20.00;99.90;;;;;;4991347;28;20021;-79
2023/07/17 08:39:15;;;;;;;6.30;1.90;;;20.00;99.90;;;;;;4998420;28;20114;-79
2023/07/17 08:41:45;;;;;;;1.65;1.00;;;19.80;99.90;;;;;;4997660;28;20042;-78
2023/07/17 08:44:18;;;;;;;2.78;1.55;;;20.20;99.90;;;;;;4995395;28;20061;-77
2023/07/17 08:46:46;;;;;;;0.57;0.57;;;19.90;99.90;;;;;;4993695;28;20022;-77
2023/07/17 08:49:17;;;;;;;0.98;0.93;;;19.80;99.90;;;;;;4995056;28;20040;-78
2023/07/17 08:51:44;;;;;;;0.67;0.67;;;19.70;99.90;;;;;;4991417;28;20050;-77
2023/07/17 08:54:12;;;;;;;3.38;1.60;;;19.40;99.90;;;;;;5005608;28;20304;-77
2023/07/17 08:56:40;;;;;;;1.02;0.88;;;19.80;99.90;;;;;;5004981;28;20530;-76
2023/07/17 08:59:07;;;;;;;1.15;1.08;;;20.00;99.90;;;;;;4996498;28;20495;-77
2023/07/17 09:01:33;;;;;;;3.28;1.10;;;20.30;99.90;;;;;;4994701;28;20030;-78
2023/07/17 09:03:59;;;;;;;4.60;1.45;;;20.40;99.90;;;;;;4992848;28;20013;-77
2023/07/17 09:06:27;;;;;;;1.70;1.17;;;20.80;99.90;;;;;;5006779;28;20033;-77
2023/07/17 09:08:53;;;;;;;1.92;1.25;;;20.80;99.90;;;;;;5001957;28;20024;-78
2023/07/17 09:11:19;;;;;;;3.58;1.17;;;20.80;99.90;;;;;;4994797;28;20876;-76
2023/07/17 09:13:47;;;;;;;3.60;1.73;;;21.20;99.90;;;;;;4993205;28;20134;-77
2023/07/17 10:03:48;;;;;;;1.30;0.93;;;21.80;99.90;;;;;;5106417;27;20392;-74
2023/07/17 10:06:15;;;;;;;0.73;0.60;;;21.20;99.90;;;;;;5106311;28;20027;-76
2023/07/17 10:08:49;;;;;;;3.03;2.20;;;20.90;99.90;;;;;;5106193;28;20016;-75
2023/07/17 10:11:16;;;;;;;11.30;2.03;;;20.90;99.90;;;;;;5104956;28;20034;-74
2023/07/17 10:13:44;;;;;;;0.95;0.70;;;20.50;99.90;;;;;;5106095;28;20028;-76
2023/07/17 10:16:15;;;;;;;7.57;2.67;;;20.60;99.90;;;;;;5105259;28;20022;-74
2023/07/17 10:18:54;;;;;;;5.32;1.88;;;20.70;99.90;;;;;;5106147;28;20026;-75
2023/07/17 10:21:21;;;;;;;1.48;1.00;;;20.60;99.90;;;;;;5106100;28;20032;-76
2023/07/17 10:23:50;;;;;;;4.65;1.92;;;20.80;99.90;;;;;;5105720;28;20023;-77
2023/07/17 10:26:20;;;;;;;0.30;0.30;;;21.10;99.90;;;;;;5105988;28;20026;-75
2023/07/17 10:28:52;;;;;;;7.80;1.15;;;21.20;99.90;;;;;;5105809;28;20382;-72
2023/07/17 10:31:24;;;;;;;3.28;0.47;;;21.20;99.90;;;;;;5105899;28;20032;-71
2023/07/17 10:33:58;;;;;;;1.65;1.25;;;21.50;99.90;;;;;;5104471;28;20034;-72
2023/07/17 10:36:40;;;;;;;3.88;2.00;;;21.40;99.90;;;;;;5106156;28;20376;-76
2023/07/17 10:39:07;;;;;;;;;;;20.80;99.90;;;;;;5106125;28;20089;-76
2023/07/17 10:41:35;;;;;;;2.92;1.27;;;20.90;99.90;;;;;;5106094;28;20402;-77
2023/07/17 10:44:03;;;;;;;4.30;0.95;;;21.00;99.90;;;;;;5105548;28;20422;-76
2023/07/17 10:46:34;;;;;;;7.28;1.85;;;21.10;99.90;;;;;;5104719;28;20129;-74
2023/07/17 10:49:10;;;;;;;1.17;1.00;;;21.40;99.90;;;;;;5104647;28;20024;-75
2023/07/17 10:51:37;;;;;;;2.20;1.00;;;21.30;99.90;;;;;;5095575;28;20032;-79
2023/07/17 10:54:03;;;;;;;4.57;1.33;;;21.40;99.90;;;;;;5101069;28;20028;-77
2023/07/17 10:56:30;;;;;;;2.92;1.65;;;21.00;99.90;;;;;;5105568;28;20536;-77
2023/07/17 10:58:56;;;;;;;5.97;1.35;;;21.30;99.90;;;;;;5101647;28;20024;-77
2023/07/17 11:01:22;;;;;;;0.55;0.47;;;21.80;99.90;;;;;;5105214;28;20467;-77
2023/07/17 11:03:49;;;;;;;6.82;1.02;;;22.00;99.90;;;;;;5096485;28;20024;-77
2023/07/17 11:06:16;;;;;;;8.60;2.58;;;21.70;99.90;;;;;;5091658;28;20024;-77
2023/07/17 11:08:42;;;;;;;3.67;1.60;;;21.50;99.90;;;;;;5077987;28;20024;-73
2023/07/17 11:11:10;;;;;;;5.00;1.85;;;21.70;99.90;;;;;;5088072;28;20052;-73
2023/07/17 11:13:36;;;;;;;3.83;1.10;;;22.30;99.90;;;;;;5090877;28;20093;-77
2023/07/17 11:16:06;;;;;;;0.57;0.50;;;22.00;99.90;;;;;;5090690;28;20463;-76
2023/07/17 11:18:32;;;;;;;1.23;1.00;;;22.30;99.60;;;;;;5077737;28;20028;-76
2023/07/17 11:20:57;;;;;;;0.93;0.90;;;21.80;99.90;;;;;;5092313;28;20632;-76
2023/07/17 11:23:23;;;;;;;8.27;1.52;;;22.00;99.90;;;;;;5090955;28;20114;-76
2023/07/17 11:25:49;;;;;;;3.35;0.40;;;21.50;99.90;;;;;;5090490;28;20178;-76
2023/07/17 11:28:15;;;;;;;3.13;1.98;;;22.20;99.90;;;;;;5090926;28;20051;-75
2023/07/17 11:30:41;;;;;;;3.22;1.77;;;21.60;99.90;;;;;;5091773;28;20027;-76
2023/07/17 11:33:08;;;;;;;2.25;1.10;;;21.50;99.90;;;;;;5091422;28;20032;-75
2023/07/17 11:35:40;;;;;;;4.28;1.73;;;21.80;99.90;;;;;;5090192;28;20436;-75
2023/07/17 11:38:07;;;;;;;2.22;1.55;;;22.30;99.90;;;;;;5091556;28;20101;-76
2023/07/17 11:40:53;;;;;;;8.10;2.25;;;22.50;99.10;;;;;;5090031;28;20080;-76
2023/07/17 11:43:33;;;;;;;0.10;0.10;;;22.60;99.70;;;;;;5089693;28;20103;-75
2023/07/17 11:46:03;;;;;;;1.83;1.17;;;23.10;98.80;;;;;;5086409;28;20115;-71
2023/07/17 11:48:31;;;;;;;2.42;1.23;;;23.60;98.30;;;;;;5079876;28;20469;-73
2023/07/17 11:50:58;;;;;;;1.55;0.70;;;23.70;96.30;;;;;;5071746;28;20035;-75
2023/07/17 11:53:24;;;;;;;0.82;0.50;;;23.90;96.90;;;;;;5075009;28;20020;-73
2023/07/17 11:55:50;;;;;;;0.55;0.55;;;24.20;95.40;;;;;;5072928;28;20024;-71
2023/07/17 11:58:20;;;;;;;0.20;0.20;;;24.00;95.00;;;;;;5084708;28;20048;-76
2023/07/17 12:00:49;;;;;;;3.45;1.15;;;23.80;95.70;;;;;;5075855;28;20020;-75
2023/07/17 12:03:15;;;;;;;0.10;0.10;;;23.20;94.70;;;;;;5076769;28;20131;-75
2023/07/17 12:05:41;;;;;;;0.20;0.20;;;23.20;95.40;;;;;;5073793;28;20050;-76
2023/07/17 12:08:07;;;;;;;0.68;0.68;;;23.60;95.00;;;;;;5071375;28;20508;-76
2023/07/17 12:10:33;;;;;;;0.80;0.63;;;23.00;95.70;;;;;;5078339;28;20008;-76
2023/07/17 12:13:00;;;;;;;0.30;0.30;;;23.00;96.10;;;;;;5093409;28;20496;-76
2023/07/17 12:15:27;;;;;;;1.92;1.15;;;23.20;96.10;;;;;;5091800;28;20024;-77
2023/07/17 12:17:54;;;;;;;3.42;0.22;;;23.20;95.70;;;;;;5094233;28;20044;-75
2023/07/17 12:20:21;;;;;;;1.00;0.88;;;23.00;98.40;;;;;;5093580;28;20086;-76
2023/07/17 12:22:49;;;;;;;1.35;0.90;;;22.90;99.70;;;;;;5093358;28;20038;-75
2023/07/17 12:25:15;;;;;;;9.65;1.58;;;22.90;99.90;;;;;;5092643;28;20066;-76
2023/07/17 12:27:42;;;;;;;1.05;0.95;;;22.30;99.90;;;;;;5094195;28;20056;-76
2023/07/17 12:30:09;;;;;;;2.85;1.63;;;21.80;99.90;;;;;;5093932;28;20032;-76
2023/07/17 12:32:35;;;;;;;1.00;0.38;;;21.40;99.90;;;;;;5094005;28;20032;-76
2023/07/17 12:35:01;;;;;;;0.65;0.65;;;21.10;99.90;;;;;;5094019;28;20077;-76
2023/07/17 12:37:29;;;;;;;1.58;1.30;;;21.40;99.90;;;;;;5093434;28;20077;-76
2023/07/17 12:39:55;;;;;;;0.45;0.45;;;22.30;99.90;;;;;;5093887;28;20032;-76
2023/07/17 12:42:21;;;;;;;1.45;0.45;;;22.50;99.90;;;;;;5093711;28;20024;-76
2023/07/17 12:44:47;;;;;;;0.55;0.35;;;22.90;99.90;;;;;;5093751;28;20020;-77
2023/07/17 12:47:13;;;;;;;0.40;0.40;;;23.30;99.90;;;;;;5093697;28;20081;-76
2023/07/17 12:49:39;;;;;;;1.10;0.75;;;23.40;99.90;;;;;;5086708;28;20028;-76
2023/07/17 12:52:05;;;;;;;12.82;4.18;;;23.90;99.10;;;;;;5087435;28;20024;-72
2023/07/17 12:54:31;;;;;;;0.00;0.00;;;23.90;99.20;;;;;;5093695;28;20103;-75
2023/07/17 12:56:57;;;;;;;0.40;0.40;;;23.80;98.40;;;;;;5093428;28;20027;-75
2023/07/17 12:59:23;;;;;;;0.45;0.45;;;23.50;99.50;;;;;;5092397;28;20024;-76
2023/07/17 13:01:49;;;;;;;1.75;1.05;;;23.70;96.90;;;;;;5093087;28;20499;-76
2023/07/17 13:04:15;;;;;;;0.20;0.20;;;23.30;98.20;;;;;;5091870;28;20036;-76
2023/07/17 13:06:41;;;;;;;0.80;0.80;;;22.40;99.90;;;;;;5093279;28;20023;-76
2023/07/17 13:09:10;;;;;;;0.73;0.63;;;22.30;99.90;;;;;;5093568;28;20464;-77
2023/07/17 13:11:36;;;;;;;3.85;1.25;;;22.20;99.90;;;;;;5093220;28;20020;-75
2023/07/17 13:14:02;;;;;;;1.60;1.05;;;21.10;99.90;;;;;;5093387;28;20028;-76
2023/07/17 13:16:28;;;;;;;1.67;1.05;;;20.20;99.90;;;;;;5093203;28;20380;-76
2023/07/17 13:18:55;;;;;;;1.30;1.13;;;19.70;99.90;;;;;;5074822;28;20142;-76
2023/07/17 13:21:24;;;;;;;0.30;0.30;;;19.20;99.90;;;;;;5092966;28;20036;-75
2023/07/17 13:23:50;;;;;;;7.13;1.48;;;19.10;99.90;;;;;;5091894;28;20028;-76
2023/07/17 13:26:18;;;;;;;1.40;0.60;;;18.90;99.90;;;;;;5092906;28;20054;-76
2023/07/17 13:28:44;;;;;;;1.85;1.20;;;19.10;99.90;;;;;;5092890;28;20036;-76
2023/07/17 13:31:09;;;;;;;0.10;0.10;;;19.30;99.90;;;;;;5092976;28;20106;-76